Time;durP1;ratioP1;P1;durP2;ratioP2;P2;SDS_P1;SDS_P2;PMS_P1;PMS_P2;Temp;Humidity;BMP_temperature;BMP_pressure;BME280_temperature;BME280_humidity;BME280_pressure;Samples;Min_cycle;Max_cycle;Signal;HPM_P1;HPM_P2
2022/11/18 00:02:08;;;;;;;7.77;5.70;;;3.80;99.90;3.60;99014.00;;;;4895720;28;106602;-63
2022/11/18 00:04:34;;;;;;;12.03;5.67;;;3.80;99.90;3.50;99004.00;;;;4895540;28;93030;-64
2022/11/18 00:07:00;;;;;;;6.80;6.10;;;3.50;99.90;3.50;99010.00;;;;4895252;28;109114;-64
2022/11/18 00:09:25;;;;;;;6.10;5.27;;;4.20;99.90;3.50;99012.00;;;;4894536;28;107679;-63
2022/11/18 00:14:35;;;;;;;9.03;6.30;;;3.70;99.90;3.50;99023.00;;;;4889062;28;92963;-63
2022/11/18 00:17:04;;;;;;;8.67;5.43;;;3.70;99.90;3.50;99032.00;;;;4897139;28;110239;-64
2022/11/18 00:19:34;;;;;;;6.97;5.40;;;3.70;99.90;3.50;99024.00;;;;4897379;28;102785;-63
2022/11/18 00:22:00;;;;;;;5.57;5.07;;;3.70;99.90;3.50;99016.00;;;;4895380;28;116455;-65
2022/11/18 00:24:26;;;;;;;5.50;5.00;;;3.70;99.90;3.50;99006.00;;;;4896649;28;108230;-62
2022/11/18 00:26:53;;;;;;;6.30;4.70;;;3.70;99.90;3.50;99008.00;;;;4899173;28;111453;-63
2022/11/18 00:29:20;;;;;;;11.40;4.80;;;3.70;99.90;3.50;99013.00;;;;4898862;28;93067;-63
2022/11/18 00:31:46;;;;;;;11.93;6.10;;;3.70;99.90;3.40;99015.00;;;;4898051;28;93452;-64
2022/11/18 00:34:15;;;;;;;7.83;5.80;;;3.60;99.90;3.40;99007.00;;;;4897064;28;93900;-63
2022/11/18 00:36:43;;;;;;;5.67;4.83;;;3.60;99.90;3.40;99016.00;;;;4897194;28;103610;-64
2022/11/18 00:39:14;;;;;;;4.97;4.37;;;3.60;99.90;3.40;99012.00;;;;4903556;28;97135;-64
2022/11/18 00:44:24;;;;;;;10.23;6.07;;;3.60;99.90;3.40;99028.00;;;;4897506;28;92884;-64
2022/11/18 00:46:50;;;;;;;10.57;5.90;;;3.60;99.90;3.40;99027.00;;;;4903460;28;109299;-63
2022/11/18 00:49:16;;;;;;;6.83;6.13;;;3.60;99.90;3.40;99036.00;;;;4903868;28;107050;-63
2022/11/18 00:51:41;;;;;;;8.57;5.73;;;3.60;99.90;3.30;99047.00;;;;4899800;28;122594;-62
2022/11/18 00:54:07;;;;;;;9.07;5.70;;;3.60;99.90;3.40;99053.00;;;;4896963;28;122468;-63
2022/11/18 00:56:33;;;;;;;9.17;5.77;;;3.60;99.90;3.40;99036.00;;;;4906081;28;109970;-64
2022/11/18 00:58:59;;;;;;;7.07;5.60;;;3.60;99.90;3.40;99034.00;;;;4898419;28;109726;-64
2022/11/18 01:01:25;;;;;;;6.70;5.13;;;3.60;99.90;3.40;99029.00;;;;4897154;28;124372;-63
2022/11/18 01:03:50;;;;;;;6.23;5.63;;;3.60;99.90;3.40;99031.00;;;;4895463;28;106039;-64
2022/11/18 01:06:16;;;;;;;8.77;4.80;;;3.50;99.90;3.30;99042.00;;;;4901643;28;93305;-64
2022/11/18 01:08:42;;;;;;;7.53;4.63;;;3.50;99.90;3.40;99050.00;;;;4896708;28;109776;-64
2022/11/18 01:13:54;;;;;;;9.77;5.70;;;3.60;99.90;3.30;99034.00;;;;4898099;28;93148;-61
2022/11/18 01:16:23;;;;;;;7.37;4.77;;;3.60;99.90;3.30;99040.00;;;;4901644;28;110873;-64
2022/11/18 01:18:49;;;;;;;7.43;5.23;;;3.50;99.90;3.30;99025.00;;;;4895172;28;93290;-62
2022/11/18 01:21:16;;;;;;;10.50;6.10;;;3.50;99.90;3.30;99018.00;;;;4898203;28;93947;-63
2022/11/18 01:23:42;;;;;;;8.40;5.90;;;3.50;99.90;3.30;99014.00;;;;4900639;28;94187;-62
2022/11/18 01:26:11;;;;;;;6.07;5.13;;;3.40;99.90;3.20;99005.00;;;;4895926;28;104891;-62
2022/11/18 01:28:37;;;;;;;6.90;5.20;;;3.40;99.90;3.30;99018.00;;;;4897862;28;93089;-63
2022/11/18 01:31:08;;;;;;;7.43;5.10;;;3.40;99.90;3.20;99005.00;;;;4897567;28;116205;-63
2022/11/18 01:33:35;;;;;;;5.13;4.27;;;3.50;99.90;3.20;99008.00;;;;4903082;28;95549;-63
2022/11/18 01:36:01;;;;;;;6.20;5.23;;;3.50;99.90;3.20;99022.00;;;;4897055;28;102789;-64
2022/11/18 01:38:27;;;;;;;8.13;4.23;;;3.40;99.90;3.20;99034.00;;;;4896792;28;93491;-62
2022/11/18 01:40:53;;;;;;;12.03;5.70;;;3.40;99.90;3.20;99034.00;;;;4898304;28;93307;-62
2022/11/18 01:43:20;;;;;;;7.27;5.10;;;3.40;99.90;3.20;99033.00;;;;4905223;28;96081;-63
2022/11/18 01:45:49;;;;;;;7.53;4.70;;;3.40;99.90;3.10;99035.00;;;;4898948;28;103372;-62
2022/11/18 01:48:32;;;;;;;5.43;4.93;;;3.30;99.90;3.10;99042.00;;;;4896427;28;98192;-61
2022/11/18 01:51:04;;;;;;;8.37;5.37;;;3.30;99.90;3.10;99052.00;;;;4899523;28;108452;-62
2022/11/18 01:53:42;;;;;;;6.27;4.80;;;3.30;99.90;3.10;99044.00;;;;4899069;28;114028;-62
2022/11/18 01:56:15;;;;;;;6.93;5.60;;;3.30;99.90;3.10;99041.00;;;;4895561;28;93099;-61
2022/11/18 01:58:53;;;;;;;8.27;5.70;;;3.30;99.90;3.10;99030.00;;;;4898750;28;93049;-63
2022/11/18 02:01:19;;;;;;;5.80;4.87;;;3.30;99.90;3.10;99018.00;;;;4897885;28;93151;-63
2022/11/18 02:03:45;;;;;;;8.40;5.13;;;3.30;99.90;3.00;99021.00;;;;4899627;28;121414;-62
2022/11/18 02:06:12;;;;;;;9.03;5.50;;;3.30;99.90;3.00;99023.00;;;;4899005;28;110901;-63
2022/11/18 02:08:39;;;;;;;8.63;5.73;;;3.30;99.90;3.10;99026.00;;;;4901600;28;108495;-62
2022/11/18 02:17:02;;;;;;;8.13;5.13;;;3.30;99.90;3.10;99015.00;;;;4897384;28;109947;-63
2022/11/18 02:19:46;;;;;;;5.90;4.77;;;3.40;99.90;3.10;99016.00;;;;4899172;28;92819;-62
2022/11/18 02:22:46;;;;;;;10.27;6.10;;;3.40;99.90;3.10;99012.00;;;;4898218;28;93915;-62
2022/11/18 02:25:43;;;;;;;7.57;5.73;;;3.40;99.90;3.10;99018.00;;;;4896744;28;95022;-62
2022/11/18 02:28:46;;;;;;;5.77;4.83;;;3.40;99.90;3.10;99012.00;;;;4898817;28;92750;-62
2022/11/18 02:31:36;;;;;;;5.97;4.83;;;3.40;99.90;3.10;99015.00;;;;4894573;28;93272;-63
2022/11/18 02:34:21;;;;;;;7.50;5.90;;;3.30;99.90;3.10;99026.00;;;;4896463;28;92675;-63
2022/11/18 02:37:16;;;;;;;6.70;5.83;;;3.30;99.90;3.10;99042.00;;;;4908703;28;94158;-62
2022/11/18 02:39:56;;;;;;;7.73;5.20;;;3.30;99.90;3.10;99036.00;;;;4909895;28;103361;-62
2022/11/18 02:42:25;;;;;;;10.07;5.50;;;3.30;99.90;3.10;99043.00;;;;4890858;28;100739;-63
2022/11/18 02:44:57;;;;;;;7.40;5.10;;;3.30;99.90;3.10;99034.00;;;;4907468;28;94213;-62
2022/11/18 02:47:26;;;;;;;11.63;6.37;;;3.30;99.90;3.10;99028.00;;;;4892865;28;111073;-63
2022/11/18 02:49:58;;;;;;;7.93;5.20;;;3.30;99.90;3.10;99021.00;;;;4895513;28;111098;-64
2022/11/18 02:52:25;;;;;;;8.10;5.53;;;3.30;99.90;3.10;99020.00;;;;4897666;28;101280;-63
2022/11/18 02:54:52;;;;;;;5.47;4.30;;;3.30;99.90;3.00;99027.00;;;;4895213;28;93607;-64
2022/11/18 02:57:20;;;;;;;6.23;5.30;;;3.20;99.90;3.00;99035.00;;;;4894502;28;122523;-64
2022/11/18 02:59:46;;;;;;;7.37;6.50;;;3.30;99.90;3.00;99030.00;;;;4900019;28;92164;-63
2022/11/18 03:02:16;;;;;;;6.10;5.10;;;3.30;99.90;3.00;99023.00;;;;4898111;28;108485;-62
2022/11/18 03:04:44;;;;;;;7.07;4.93;;;3.10;99.90;3.00;99018.00;;;;4897807;28;93729;-63
2022/11/18 03:07:21;;;;;;;7.00;4.73;;;3.30;99.90;3.00;99021.00;;;;4897139;28;108969;-62
2022/11/18 03:09:50;;;;;;;12.30;5.50;;;3.30;99.90;3.00;99017.00;;;;4911459;28;101597;-62
2022/11/18 03:12:53;;;;;;;10.53;5.67;;;3.20;99.90;3.00;99021.00;;;;4901799;28;93130;-63
2022/11/18 03:15:36;;;;;;;7.30;6.10;;;3.20;99.90;2.90;99027.00;;;;4900555;28;93653;-61
2022/11/18 03:18:27;;;;;;;6.53;5.13;;;3.20;99.90;2.90;99017.00;;;;4895356;28;92818;-62
2022/11/18 03:21:06;;;;;;;5.60;3.80;;;3.20;99.90;2.90;99024.00;;;;4908752;28;102470;-63
2022/11/18 03:23:42;;;;;;;8.57;6.20;;;3.20;99.90;2.90;99034.00;;;;4899279;28;96246;-62
2022/11/18 03:26:19;;;;;;;8.23;5.17;;;3.10;99.90;2.90;99030.00;;;;4891646;28;112660;-63
2022/11/18 03:29:10;;;;;;;7.53;5.63;;;3.20;99.90;2.80;99035.00;;;;4899327;28;100214;-64
2022/11/18 03:31:43;;;;;;;9.03;6.10;;;3.10;99.90;2.90;99034.00;;;;4898606;28;93031;-63
2022/11/18 03:34:19;;;;;;;7.23;4.83;;;3.10;99.90;2.90;99036.00;;;;4897657;28;94028;-63
2022/11/18 03:36:51;;;;;;;6.13;5.40;;;3.20;99.90;2.90;99029.00;;;;4899120;28;93643;-65
2022/11/18 03:39:20;;;;;;;6.83;5.23;;;3.10;99.90;2.90;99036.00;;;;4898427;28;103522;-64
2022/11/18 03:41:53;;;;;;;6.70;4.63;;;3.10;99.90;2.80;99032.00;;;;4895872;28;110509;-66
2022/11/18 03:44:28;;;;;;;8.73;6.00;;;3.10;99.90;2.80;99029.00;;;;4911859;28;92894;-64
2022/11/18 03:47:13;;;;;;;6.83;5.77;;;3.50;99.90;2.80;99024.00;;;;4911513;28;115507;-64
2022/11/18 03:49:45;;;;;;;11.07;5.37;;;3.10;99.90;2.80;99034.00;;;;4894687;28;114819;-64
2022/11/18 03:52:17;;;;;;;9.70;5.07;;;3.00;99.90;2.80;99017.00;;;;4893582;28;92381;-64
2022/11/18 03:54:46;;;;;;;6.07;4.63;;;3.00;99.90;2.80;99021.00;;;;4910104;28;100596;-65
2022/11/18 03:57:37;;;;;;;8.13;5.03;;;3.10;99.90;2.80;99028.00;;;;4892034;28;93339;-65
2022/11/18 04:00:13;;;;;;;7.07;5.13;;;3.10;99.90;2.70;99028.00;;;;4893308;28;114083;-64
2022/11/18 04:02:39;;;;;;;4.20;3.80;;;3.00;99.90;2.80;99034.00;;;;4897969;28;92976;-64
2022/11/18 04:05:09;;;;;;;8.30;5.10;;;3.00;99.90;2.70;99038.00;;;;4894705;28;109619;-65
2022/11/18 04:07:50;;;;;;;7.43;5.40;;;2.90;99.90;2.70;99048.00;;;;4893359;28;93944;-64
2022/11/18 04:10:24;;;;;;;8.63;5.60;;;2.90;99.90;2.70;99022.00;;;;4897313;28;116391;-64
2022/11/18 04:13:11;;;;;;;6.97;5.40;;;2.90;99.90;2.70;99036.00;;;;4898408;28;93019;-64
2022/11/18 04:15:40;;;;;;;6.83;5.73;;;3.00;99.90;2.70;99043.00;;;;4899552;28;102678;-63
2022/11/18 04:18:05;;;;;;;11.50;5.07;;;2.90;99.90;2.70;99055.00;;;;4896096;28;115483;-64
2022/11/18 04:20:32;;;;;;;8.90;6.13;;;3.70;99.90;2.70;99049.00;;;;4901182;28;108014;-63
2022/11/18 04:22:58;;;;;;;11.03;6.20;;;3.70;99.90;2.70;99055.00;;;;4898505;28;92847;-63
2022/11/18 04:25:24;;;;;;;7.77;5.07;;;2.90;99.90;2.70;99064.00;;;;4900897;28;102584;-63
2022/11/18 04:27:50;;;;;;;9.57;5.83;;;2.90;99.90;2.70;99062.00;;;;4899347;28;93949;-64
2022/11/18 04:30:17;;;;;;;9.67;6.50;;;3.00;99.90;2.70;99068.00;;;;4904140;28;92942;-64
2022/11/18 04:32:43;;;;;;;6.77;5.10;;;2.90;99.90;2.70;99071.00;;;;4900066;28;92925;-64
2022/11/18 04:35:08;;;;;;;9.13;6.33;;;2.90;99.90;2.70;99071.00;;;;4900514;28;108775;-64
2022/11/18 04:37:34;;;;;;;9.90;6.10;;;3.00;99.90;2.70;99077.00;;;;4899581;28;121529;-63
2022/11/18 04:40:00;;;;;;;8.00;5.40;;;2.90;99.90;2.70;99076.00;;;;4902173;28;121204;-65
2022/11/18 04:42:26;;;;;;;7.93;5.37;;;2.90;99.90;2.70;99077.00;;;;4900970;28;92309;-65
2022/11/18 04:44:51;;;;;;;10.57;5.80;;;3.00;99.90;2.70;99071.00;;;;4902340;28;93429;-63
2022/11/18 04:47:17;;;;;;;11.47;6.80;;;2.90;99.90;2.70;99079.00;;;;4901594;28;94220;-64
2022/11/18 04:49:43;;;;;;;7.70;5.23;;;2.90;99.90;2.70;99076.00;;;;4902130;28;123433;-64
2022/11/18 04:52:09;;;;;;;8.90;6.37;;;2.90;99.90;2.70;99082.00;;;;4901831;28;110203;-65
2022/11/18 04:54:34;;;;;;;6.77;5.90;;;2.90;99.90;2.70;99085.00;;;;4899177;28;107647;-65
2022/11/18 04:57:00;;;;;;;8.10;5.30;;;2.90;99.90;2.70;99100.00;;;;4900903;28;123599;-66
2022/11/18 04:59:28;;;;;;;6.17;5.53;;;3.50;99.90;2.70;99090.00;;;;4903087;28;122513;-65
2022/11/18 05:01:55;;;;;;;7.40;5.20;;;3.00;99.90;2.70;99098.00;;;;4899975;28;92879;-65
2022/11/18 05:04:24;;;;;;;8.37;5.97;;;2.90;99.90;2.70;99096.00;;;;4901313;28;92763;-65
2022/11/18 05:06:51;;;;;;;7.20;5.67;;;2.90;99.90;2.70;99103.00;;;;4904816;28;92598;-65
2022/11/18 05:09:17;;;;;;;11.53;6.07;;;2.90;99.90;2.70;99096.00;;;;4902018;28;93139;-65
2022/11/18 05:14:29;;;;;;;8.93;6.40;;;2.80;99.90;2.60;99094.00;;;;4900187;28;93867;-66
2022/11/18 05:16:58;;;;;;;11.10;6.63;;;2.90;99.90;2.60;99102.00;;;;4899918;28;93730;-65
2022/11/18 05:19:24;;;;;;;7.30;6.10;;;2.80;99.90;2.50;99101.00;;;;4901800;28;93779;-65
2022/11/18 05:21:50;;;;;;;11.30;6.83;;;2.80;99.90;2.50;99105.00;;;;4895983;28;110209;-65
2022/11/18 05:24:15;;;;;;;9.10;6.17;;;2.90;99.90;2.50;99113.00;;;;4897587;28;109073;-65
2022/11/18 05:26:41;;;;;;;10.63;7.00;;;2.70;99.90;2.50;99101.00;;;;4895754;28;114882;-65
2022/11/18 05:29:07;;;;;;;10.67;6.70;;;2.80;99.90;2.50;99108.00;;;;4894599;28;122860;-65
2022/11/18 05:31:33;;;;;;;8.30;6.70;;;2.70;99.90;2.50;99106.00;;;;4893826;28;110084;-66
2022/11/18 05:33:58;;;;;;;8.20;6.47;;;2.70;99.90;2.50;99101.00;;;;4894256;28;109299;-65
2022/11/18 05:36:24;;;;;;;6.10;5.33;;;2.70;99.90;2.50;99104.00;;;;4892605;28;112228;-65
2022/11/18 05:38:50;;;;;;;8.07;6.03;;;2.70;99.90;2.50;99118.00;;;;4894676;28;123333;-65
2022/11/18 05:44:03;;;;;;;14.40;7.07;;;2.70;99.90;2.40;99118.00;;;;4891725;28;94408;-66
2022/11/18 05:46:30;;;;;;;8.90;5.87;;;2.70;99.90;2.40;99106.00;;;;4891563;28;114356;-66
2022/11/18 05:48:56;;;;;;;12.20;7.00;;;2.60;99.90;2.30;99106.00;;;;4893677;28;94288;-65
2022/11/18 05:51:22;;;;;;;11.57;6.73;;;2.60;99.90;2.30;99117.00;;;;4900480;28;102164;-67
2022/11/18 05:53:50;;;;;;;12.63;8.20;;;2.60;99.90;2.30;99127.00;;;;4894821;28;94110;-65
2022/11/18 05:56:28;;;;;;;9.23;6.70;;;2.50;99.90;2.30;99130.00;;;;4894288;28;94610;-64
2022/11/18 05:58:53;;;;;;;9.77;5.30;;;2.60;99.90;2.30;99132.00;;;;4896003;28;93095;-65
2022/11/18 06:01:28;;;;;;;11.30;6.37;;;2.50;99.90;2.30;99133.00;;;;4896879;28;103732;-66
2022/11/18 06:03:55;;;;;;;14.60;8.23;;;2.50;99.90;2.20;99135.00;;;;4896486;28;99576;-65
2022/11/18 06:06:21;;;;;;;14.37;7.63;;;2.50;99.90;2.20;99148.00;;;;4891132;28;123282;-65
2022/11/18 06:08:55;;;;;;;10.37;7.57;;;2.50;99.90;2.10;99143.00;;;;4892923;28;92971;-65
2022/11/18 06:11:22;;;;;;;8.97;6.77;;;2.40;99.90;2.20;99154.00;;;;4889356;28;101514;-65
2022/11/18 06:14:34;;;;;;;7.90;5.83;;;2.40;99.90;2.10;99155.00;;;;4898371;28;93110;-65
2022/11/18 06:17:04;;;;;;;9.40;6.17;;;2.40;99.90;2.10;99161.00;;;;4889801;28;114885;-64
2022/11/18 06:19:31;;;;;;;9.33;6.83;;;2.50;99.90;2.10;99175.00;;;;4918698;28;104917;-65
2022/11/18 06:21:58;;;;;;;11.93;7.60;;;2.40;99.90;2.10;99176.00;;;;4896676;28;94079;-65
2022/11/18 06:24:24;;;;;;;10.33;7.20;;;2.30;99.90;2.00;99174.00;;;;4893313;28;93268;-65
2022/11/18 06:26:50;;;;;;;9.83;7.77;;;2.30;99.90;2.00;99173.00;;;;4897510;28;122389;-65
2022/11/18 06:29:19;;;;;;;10.13;6.77;;;2.30;99.90;2.00;99178.00;;;;4901444;28;117751;-66
2022/11/18 06:31:44;;;;;;;7.97;5.80;;;2.30;99.90;2.00;99191.00;;;;4898292;28;92839;-65
2022/11/18 06:34:10;;;;;;;10.60;6.10;;;2.20;99.90;1.90;99192.00;;;;4895411;28;108886;-65
2022/11/18 06:36:36;;;;;;;11.03;7.17;;;2.20;99.90;1.90;99191.00;;;;4894459;28;122088;-65
2022/11/18 06:39:06;;;;;;;10.63;6.87;;;2.10;99.90;1.90;99202.00;;;;4897570;28;93973;-65
2022/11/18 06:41:33;;;;;;;13.63;7.17;;;2.20;99.90;1.90;99212.00;;;;4898876;28;93083;-65
2022/11/18 06:43:58;;;;;;;13.37;7.13;;;2.20;99.90;1.90;99205.00;;;;4896536;28;103761;-66
2022/11/18 06:49:09;;;;;;;13.60;7.00;;;2.10;99.90;1.90;99200.00;;;;4893592;28;93007;-66
2022/11/18 06:51:34;;;;;;;11.87;8.37;;;2.10;99.90;1.90;99208.00;;;;4893461;28;111944;-65
2022/11/18 06:54:00;;;;;;;9.80;7.00;;;2.60;99.90;1.80;99208.00;;;;4896832;28;108864;-65
2022/11/18 06:56:25;;;;;;;8.27;6.07;;;2.20;99.90;1.80;99208.00;;;;4891470;28;123062;-67
2022/11/18 06:58:54;;;;;;;9.63;6.87;;;2.10;99.90;1.80;99216.00;;;;4896451;28;98587;-64
2022/11/18 07:01:22;;;;;;;13.03;7.80;;;2.00;99.90;1.80;99211.00;;;;4895986;28;93065;-65
2022/11/18 07:03:49;;;;;;;17.93;9.53;;;2.10;99.90;1.80;99215.00;;;;4898384;28;92920;-65
2022/11/18 07:06:20;;;;;;;15.37;9.77;;;2.10;99.90;1.80;99221.00;;;;4898657;28;93536;-68
2022/11/18 07:08:46;;;;;;;15.87;9.30;;;2.10;99.90;1.70;99231.00;;;;4901967;28;92808;-65
2022/11/18 07:11:15;;;;;;;10.43;8.13;;;2.10;99.90;1.80;99229.00;;;;4899183;28;92213;-66
2022/11/18 07:13:42;;;;;;;17.17;10.07;;;2.00;99.90;1.70;99226.00;;;;4897161;28;97023;-66
2022/11/18 07:16:17;;;;;;;16.70;9.83;;;2.00;99.90;1.70;99249.00;;;;4897099;28;114824;-65
2022/11/18 07:18:45;;;;;;;10.10;8.70;;;2.10;99.90;1.70;99245.00;;;;4900246;28;93864;-65
2022/11/18 07:21:18;;;;;;;16.23;9.87;;;2.00;99.90;1.60;99250.00;;;;4892322;28;93211;-65
2022/11/18 07:23:44;;;;;;;11.73;7.87;;;1.90;99.90;1.60;99242.00;;;;4901512;28;92887;-65
2022/11/18 07:26:11;;;;;;;13.67;8.47;;;1.80;99.90;1.50;99244.00;;;;4901908;28;93242;-66
2022/11/18 07:28:36;;;;;;;15.13;9.57;;;1.90;99.90;1.50;99244.00;;;;4896482;28;111285;-64
2022/11/18 07:31:08;;;;;;;15.37;9.13;;;1.80;99.90;1.50;99254.00;;;;4897625;28;92862;-66
2022/11/18 07:33:35;;;;;;;12.73;8.03;;;1.70;99.90;1.40;99255.00;;;;4897589;28;92772;-65
2022/11/18 07:36:13;;;;;;;16.60;8.87;;;1.70;99.90;1.30;99255.00;;;;4896176;28;95737;-65
2022/11/18 07:38:40;;;;;;;15.10;9.07;;;1.70;99.90;1.30;99254.00;;;;4895289;28;114926;-64
2022/11/18 07:41:18;;;;;;;10.63;7.70;;;1.60;99.90;1.30;99254.00;;;;4896783;28;109739;-64
2022/11/18 07:43:44;;;;;;;15.00;8.47;;;1.60;99.90;1.20;99265.00;;;;4897126;28;94041;-65
2022/11/18 07:46:11;;;;;;;15.93;8.80;;;1.70;99.90;1.20;99269.00;;;;4896999;28;94123;-65
2022/11/18 07:48:37;;;;;;;13.00;7.30;;;1.50;99.90;1.20;99272.00;;;;4893589;28;94061;-65
2022/11/18 07:51:02;;;;;;;12.93;8.20;;;1.50;99.90;1.10;99263.00;;;;4897624;28;106184;-66
2022/11/18 07:53:33;;;;;;;10.07;7.67;;;1.40;99.90;1.10;99259.00;;;;4902618;28;92799;-65
2022/11/18 07:55:59;;;;;;;20.53;10.33;;;1.40;99.90;1.10;99271.00;;;;4898156;28;93958;-65
2022/11/18 07:58:25;;;;;;;12.50;8.90;;;2.30;99.90;1.10;99274.00;;;;4895178;28;93232;-66
2022/11/18 08:00:51;;;;;;;17.77;8.77;;;1.30;99.90;1.10;99268.00;;;;4894369;28;93294;-66
2022/11/18 08:03:17;;;;;;;14.93;9.30;;;1.40;99.90;1.00;99288.00;;;;4894402;28;93116;-65
2022/11/18 08:05:43;;;;;;;13.37;9.10;;;1.30;99.90;1.10;99287.00;;;;4893158;28;122471;-65
2022/11/18 08:08:09;;;;;;;14.23;8.77;;;1.30;99.90;1.10;99286.00;;;;4890573;28;121327;-65
2022/11/18 08:10:36;;;;;;;14.53;10.07;;;1.40;99.90;1.00;99289.00;;;;4891370;28;92972;-65
2022/11/18 08:13:02;;;;;;;16.30;9.90;;;1.90;99.90;0.90;99286.00;;;;4889969;28;99738;-65
2022/11/18 08:15:28;;;;;;;15.40;9.73;;;1.20;99.90;0.90;99289.00;;;;4891130;28;123671;-67
2022/11/18 08:17:53;;;;;;;14.70;9.97;;;1.20;99.90;0.80;99293.00;;;;4894203;28;93612;-66
2022/11/18 08:20:19;;;;;;;10.73;7.30;;;1.20;99.90;0.80;99280.00;;;;4892061;28;110016;-65
2022/11/18 08:22:45;;;;;;;16.17;9.43;;;1.20;99.90;0.70;99279.00;;;;4893622;28;93099;-65
2022/11/18 08:25:10;;;;;;;15.27;10.00;;;1.30;99.90;0.70;99292.00;;;;4891395;28;93327;-66
2022/11/18 08:27:36;;;;;;;17.00;9.47;;;1.10;99.90;0.70;99296.00;;;;4890995;28;121571;-66
2022/11/18 08:30:02;;;;;;;11.27;8.43;;;1.00;99.90;0.70;99304.00;;;;4895404;28;113130;-66
2022/11/18 08:32:29;;;;;;;13.83;9.20;;;1.00;99.90;0.50;99300.00;;;;4891927;28;93938;-65
2022/11/18 08:34:54;;;;;;;17.03;9.73;;;0.90;99.90;0.50;99309.00;;;;4894400;28;109505;-65
2022/11/18 08:37:20;;;;;;;20.87;10.57;;;0.80;99.90;0.50;99316.00;;;;4896633;28;121873;-65
2022/11/18 08:39:45;;;;;;;16.93;9.43;;;0.90;99.90;0.50;99320.00;;;;4896272;28;110496;-65
2022/11/18 08:42:11;;;;;;;23.07;13.90;;;0.80;99.90;0.50;99310.00;;;;4892284;28;99267;-65
2022/11/18 08:44:37;;;;;;;14.13;7.97;;;0.80;99.90;0.60;99319.00;;;;4892404;28;119120;-65
2022/11/18 08:47:02;;;;;;;17.93;11.57;;;0.80;99.90;0.60;99312.00;;;;4899060;28;122914;-66
2022/11/18 08:49:28;;;;;;;16.87;11.60;;;0.80;99.90;0.60;99319.00;;;;4894721;28;110734;-64
2022/11/18 08:51:54;;;;;;;21.53;11.80;;;1.00;99.90;0.60;99319.00;;;;4895913;28;93033;-64
2022/11/18 08:54:20;;;;;;;22.77;14.70;;;0.90;99.90;0.60;99317.00;;;;4895272;28;92992;-65
2022/11/18 08:56:46;;;;;;;17.10;12.97;;;0.90;99.90;0.50;99321.00;;;;4898062;28;124422;-65
2022/11/18 08:59:12;;;;;;;18.83;12.90;;;0.90;99.90;0.50;99326.00;;;;4898775;28;112966;-66
2022/11/18 09:01:40;;;;;;;19.37;12.10;;;0.90;99.90;0.50;99323.00;;;;4896742;28;92796;-65
2022/11/18 09:04:06;;;;;;;29.67;16.40;;;0.90;99.90;0.50;99322.00;;;;4899547;28;93935;-65
2022/11/18 09:06:33;;;;;;;26.47;15.00;;;1.00;99.90;0.60;99315.00;;;;4893446;28;120824;-67
2022/11/18 09:08:59;;;;;;;16.77;12.33;;;0.80;99.90;0.50;99324.00;;;;4899886;28;93009;-66
2022/11/18 09:11:26;;;;;;;20.83;12.17;;;0.80;99.90;0.50;99321.00;;;;4899532;28;100010;-65
2022/11/18 09:13:57;;;;;;;21.10;14.37;;;0.90;99.90;0.50;99332.00;;;;4895589;28;93351;-65
2022/11/18 09:16:25;;;;;;;21.30;13.03;;;0.80;99.90;0.50;99335.00;;;;4896741;28;93107;-66
2022/11/18 09:18:51;;;;;;;25.17;13.67;;;0.80;99.90;0.50;99339.00;;;;4900463;28;93551;-65
2022/11/18 09:21:18;;;;;;;28.70;15.40;;;0.70;99.90;0.50;99336.00;;;;4899306;28;94031;-66
2022/11/18 09:23:44;;;;;;;23.93;15.07;;;0.90;99.90;0.40;99347.00;;;;4895453;28;108101;-66
2022/11/18 09:26:14;;;;;;;27.67;15.73;;;0.80;99.90;0.40;99352.00;;;;4898339;28;107869;-65
2022/11/18 09:28:40;;;;;;;25.30;15.33;;;0.70;99.90;0.30;99355.00;;;;4897955;28;92892;-65
2022/11/18 09:31:12;;;;;;;30.50;14.53;;;0.70;99.90;0.20;99361.00;;;;4901993;28;93054;-66
2022/11/18 09:33:38;;;;;;;22.53;12.13;;;0.60;99.90;0.20;99366.00;;;;4896690;28;93744;-67
2022/11/18 09:36:12;;;;;;;19.33;12.83;;;0.50;99.90;0.20;99362.00;;;;4904859;28;99003;-66
2022/11/18 09:38:38;;;;;;;23.40;14.53;;;0.50;99.90;0.20;99370.00;;;;4897660;28;92384;-67
2022/11/18 09:41:46;;;;;;;22.90;13.90;;;0.60;99.90;0.20;99370.00;;;;4898328;28;92925;-65
2022/11/18 09:44:46;;;;;;;24.67;15.00;;;0.60;99.90;0.20;99362.00;;;;4896121;28;93994;-65
2022/11/18 09:47:29;;;;;;;23.53;14.20;;;0.60;99.90;0.10;99374.00;;;;4898130;28;116048;-65
2022/11/18 09:50:00;;;;;;;25.43;14.43;;;0.50;99.90;0.10;99375.00;;;;4899741;28;93402;-66
2022/11/18 09:53:21;;;;;;;20.70;12.70;;;0.40;99.90;0.20;99379.00;;;;4897213;28;93488;-65
2022/11/18 09:55:49;;;;;;;23.03;14.53;;;0.50;99.90;0.20;99369.00;;;;4900300;28;112588;-65
2022/11/18 09:58:31;;;;;;;24.87;12.73;;;0.60;99.90;0.20;99385.00;;;;4901617;28;94183;-65
2022/11/18 10:00:56;;;;;;;22.67;13.13;;;0.50;99.90;0.20;99378.00;;;;4913487;28;93162;-65
2022/11/18 10:03:26;;;;;;;21.70;13.23;;;0.50;99.90;0.20;99390.00;;;;4902136;28;109896;-65
2022/11/18 10:06:28;;;;;;;22.23;13.03;;;0.40;99.90;0.10;99386.00;;;;4898792;28;112740;-67
2022/11/18 10:09:18;;;;;;;26.73;14.10;;;0.50;99.90;0.10;99396.00;;;;4900710;28;92943;-64
2022/11/18 10:12:18;;;;;;;18.90;12.43;;;0.50;99.90;0.10;99393.00;;;;4902857;28;93091;-65
2022/11/18 10:15:02;;;;;;;15.87;11.00;;;0.50;99.90;0.10;99382.00;;;;4902377;28;93768;-66
2022/11/18 10:17:46;;;;;;;21.57;13.40;;;0.50;99.90;0.00;99396.00;;;;4900896;28;93056;-66
2022/11/18 10:20:49;;;;;;;25.07;14.00;;;0.40;99.90;0.00;99388.00;;;;4896827;28;115676;-64
2022/11/18 10:23:26;;;;;;;24.13;13.30;;;0.40;99.90;0.00;99390.00;;;;4899258;28;96559;-64
2022/11/18 10:25:53;;;;;;;28.00;14.57;;;0.30;99.90;0.00;99409.00;;;;4899549;28;92972;-64
2022/11/18 10:28:30;;;;;;;23.57;14.03;;;0.30;99.90;0.00;99411.00;;;;4902337;28;94166;-64
2022/11/18 10:31:22;;;;;;;20.30;11.73;;;0.30;99.90;-0.10;99417.00;;;;4902161;28;93183;-65
2022/11/18 10:33:58;;;;;;;25.77;15.50;;;0.20;99.90;-0.10;99418.00;;;;4897201;28;113425;-65
2022/11/18 10:36:32;;;;;;;25.47;14.57;;;0.30;99.90;-0.10;99410.00;;;;4902475;28;93785;-64
2022/11/18 10:39:12;;;;;;;23.97;13.43;;;0.20;99.90;-0.10;99415.00;;;;4900212;28;93031;-64
2022/11/18 10:41:45;;;;;;;19.83;12.87;;;0.20;99.90;0.00;99415.00;;;;4899156;28;93975;-64
2022/11/18 10:44:35;;;;;;;24.63;13.37;;;0.30;99.90;0.00;99413.00;;;;4897133;28;93897;-64
2022/11/18 10:47:31;;;;;;;27.80;13.93;;;0.30;99.90;0.00;99417.00;;;;4900175;28;92912;-63
2022/11/18 10:50:00;;;;;;;25.23;13.27;;;0.30;99.90;0.00;99409.00;;;;4915857;28;93736;-64
2022/11/18 10:52:28;;;;;;;26.37;14.87;;;0.30;99.90;0.00;99418.00;;;;4896280;28;92893;-63
2022/11/18 10:55:19;;;;;;;24.00;14.13;;;0.30;99.90;0.00;99414.00;;;;4893678;28;92803;-64
2022/11/18 10:57:46;;;;;;;21.37;13.10;;;0.30;99.90;0.00;99424.00;;;;4898157;28;93064;-64
2022/11/18 11:00:49;;;;;;;21.60;14.77;;;0.40;99.90;0.00;99428.00;;;;4898290;28;92406;-65
2022/11/18 11:03:37;;;;;;;26.90;15.67;;;0.40;99.90;-0.10;99426.00;;;;4910852;28;93136;-63
2022/11/18 11:06:22;;;;;;;23.53;13.20;;;0.30;99.90;-0.10;99431.00;;;;4895121;28;93031;-65
2022/11/18 11:08:50;;;;;;;24.83;14.17;;;0.30;99.90;-0.10;99431.00;;;;4911742;28;94023;-64
2022/11/18 11:11:25;;;;;;;22.43;14.30;;;0.30;99.90;-0.10;99436.00;;;;4899604;28;94403;-64
2022/11/18 11:13:54;;;;;;;23.17;14.17;;;0.20;99.90;-0.10;99439.00;;;;4896370;28;92947;-64
2022/11/18 11:16:20;;;;;;;22.17;13.80;;;0.20;99.90;-0.10;99447.00;;;;4898783;28;93930;-65
2022/11/18 11:18:54;;;;;;;21.50;13.20;;;0.30;99.90;-0.10;99431.00;;;;4911416;28;101808;-65
2022/11/18 11:21:24;;;;;;;22.23;13.23;;;0.30;99.90;-0.10;99448.00;;;;4881001;28;93363;-65
2022/11/18 11:23:50;;;;;;;18.70;12.73;;;0.20;99.90;0.00;99455.00;;;;4901013;28;93086;-64
2022/11/18 11:26:37;;;;;;;23.47;13.27;;;0.30;99.90;0.00;99448.00;;;;4898889;28;107535;-64
2022/11/18 11:29:45;;;;;;;22.77;13.63;;;0.30;99.90;0.00;99449.00;;;;4897200;28;92921;-63
2022/11/18 11:32:35;;;;;;;19.97;11.87;;;0.40;99.90;0.00;99467.00;;;;4899294;28;93084;-65
2022/11/18 11:35:22;;;;;;;20.73;13.20;;;0.40;99.90;0.00;99456.00;;;;4898252;28;94909;-63
2022/11/18 11:38:01;;;;;;;20.80;12.87;;;0.40;99.90;0.00;99463.00;;;;4895402;28;96486;-63
2022/11/18 11:40:39;;;;;;;21.03;14.67;;;0.40;99.90;0.00;99465.00;;;;4901178;28;93363;-64
2022/11/18 11:43:38;;;;;;;23.50;11.93;;;0.30;99.90;0.00;99465.00;;;;4902565;28;93413;-63